EGNJ

Humberside Airport

Grimsby, United Kingdom
METAR EGNJ 110150Z AUTO 24003KT 7000 OVC021/// 03/02 Q1026
Observed Flight Rules
Dec-11 @ 01:50 UTC (34 minutes ago) Marginal Visual Flight Rules
Wind Visibility Clouds
240° at 3 knots 7,001 meters
  • Overcast at 2,100' AGL
Temperatures Readings
Current 3°C / 37°F
Dewpoint 2°C / 36°F
Humidity 93%
Altimeter 30.3" Hg
Pressure 1026 hPa
Elevation 31
METAR EGNJ 110150Z AUTO 24003KT 7000 OVC021/// 03/02 Q1026
Observed Flight Rules
Dec-11 @ 01:50 UTC
(34 minutes ago)
MVFR
Wind Visibility
240° at 3 knots 7,001 meters
Clouds
  • Overcast at 2,100' AGL
Temperature Dewpoint
3°C / 37°F 2°C / 36°F
Humidity Altimeter Pressure
93% 30.3" Hg 1026 hPa